Strona główna
METAR-TAF:

METAR-TAF

Lotnisko :

Baza lotnicza RAF Wideawake

Georgetown, Wyspa Wniebowstąpienia

Szerokość geograficzna: 07-58S, Długość geograficzna: 014-24W, wysokość: 86 m

Aktualna obserwacja pogody

Raport powstał 21 godziny i 4 minut temu, godzina 14:50 UTC
Wiatr 15 kt od południowy wschód
Temperatura 29°C
Wilgotność 48%
Ciśnienie 1013 hPa
Widzialność 10 km lub więcej
Mało chmury na wysokości 2600 ft

METAR: FHAW 151450Z 14015KT 9999 FEW026 29/17 Q1013 NOSIG RMK BLU BLU

czas: 11:54 (11:54 UTC)

Prognoza

Raport powstał 25 godziny i 24 minut temu, godzina 10:30 UTC
Prognoza ważna od 15 godzina 12 UTC do 16 godzina 06 UTC
Wiatr 17 kt od południowo-południowy wschód
Widzialność 10 km lub więcej
Mało chmury na wysokości 1800 ft
Przerywane chmury na wysokości 4500 ft
Prawdopodobieństwo 30% :
Przejściowo
od 15 godzina 12 UTC do 16 godzina 06 UTC
Widzialność: 7000 m
Rozproszone chmury na wysokości 1600 ft
słaby przelotny opad deszczu

TAF: FHAW 151030Z 1512/1606 16017KT 9999 FEW018 BKN045 PROB30 TEMPO 1512/1606 7000 -SHRA SCT016

Obserwacja i prognoza pogody dla ponad 4000 lotnisk (raport METAR i TAF).

Dostępne stacje oznaczono żółtymi i czerwonymi punktami na mapie.

Najedź kursorem aby zobaczyć nazwę stacji.

Kliknij aby zobaczyć obserwacje i prognozy pogody.

Aby zmienić mapę: kliknij na zielony przycisk z czarnym krzyżykiem, aby powiększyć; na zielony przycisk z myślnikiem, aby pomniejszyć; na zielone strzałki, aby przejść do map sąsiednich.


METAR-TAF: